createdAt,value
2017-08-03T00:00:20.602Z,44.10
2017-08-03T00:02:48.077Z,43.60
2017-08-03T00:05:15.567Z,44.30
2017-08-03T00:07:43.057Z,43.60
2017-08-03T00:10:11.297Z,44.30
2017-08-03T00:12:38.789Z,44.20
2017-08-03T00:15:07.051Z,44.60
2017-08-03T00:17:34.534Z,44.50
2017-08-03T00:20:02.787Z,44.30
2017-08-03T00:22:30.297Z,44.30
2017-08-03T00:24:57.778Z,43.80
2017-08-03T00:27:25.253Z,42.90
2017-08-03T00:29:52.759Z,41.90
2017-08-03T00:32:20.245Z,44.20
2017-08-03T00:34:47.725Z,43.20
2017-08-03T00:37:15.230Z,43.20
2017-08-03T00:39:42.724Z,43.40
2017-08-03T00:42:10.212Z,42.10
2017-08-03T00:44:37.718Z,41.90
2017-08-03T00:47:05.199Z,41.70
2017-08-03T00:49:32.687Z,43.10
2017-08-03T00:52:00.183Z,44.00
2017-08-03T00:54:27.671Z,42.40
2017-08-03T00:56:55.150Z,43.80
2017-08-03T00:59:22.651Z,43.70
2017-08-03T01:01:50.898Z,43.20
2017-08-03T01:04:18.379Z,43.10
2017-08-03T01:06:46.642Z,42.20
2017-08-03T01:09:14.135Z,42.10
2017-08-03T01:11:41.615Z,42.90
2017-08-03T01:14:09.114Z,42.60
2017-08-03T01:16:37.678Z,42.80
2017-08-03T01:19:05.181Z,42.70
2017-08-03T01:21:33.455Z,42.40
2017-08-03T01:24:01.697Z,41.70
2017-08-03T01:26:29.178Z,41.70
2017-08-03T01:28:56.670Z,41.90
2017-08-03T01:31:24.160Z,42.20
2017-08-03T01:33:51.647Z,41.30
2017-08-03T01:36:19.151Z,41.80
2017-08-03T01:38:46.633Z,41.50
2017-08-03T01:41:14.123Z,40.60
2017-08-03T01:43:41.618Z,40.80
2017-08-03T01:46:09.098Z,41.70
2017-08-03T01:48:36.590Z,41.30
2017-08-03T01:51:04.099Z,41.50
2017-08-03T01:53:31.588Z,39.90
2017-08-03T01:55:59.080Z,40.90
2017-08-03T01:58:26.584Z,41.80
2017-08-03T02:00:54.071Z,41.80
2017-08-03T02:03:21.549Z,40.30
2017-08-03T02:05:49.051Z,41.50
2017-08-03T02:08:16.535Z,41.70
2017-08-03T02:10:44.562Z,40.90
2017-08-03T02:13:12.059Z,41.40
2017-08-03T02:15:39.547Z,40.70
2017-08-03T02:18:07.034Z,41.10
2017-08-03T02:20:34.536Z,41.00
2017-08-03T02:23:02.017Z,41.70
2017-08-03T02:25:29.507Z,40.50
2017-08-03T02:27:57.015Z,39.80
2017-08-03T02:30:24.492Z,41.70
2017-08-03T02:32:51.976Z,40.90
2017-08-03T02:35:19.478Z,40.90
2017-08-03T02:37:46.962Z,41.00
2017-08-03T02:40:14.454Z,41.60
2017-08-03T02:42:41.959Z,41.60
2017-08-03T02:45:09.439Z,41.00
2017-08-03T02:47:36.923Z,41.50
2017-08-03T02:50:04.419Z,40.90
2017-08-03T02:52:32.670Z,41.90
2017-08-03T02:55:00.150Z,41.90
2017-08-03T02:57:28.420Z,41.70
2017-08-03T02:59:56.695Z,42.20
2017-08-03T03:02:24.183Z,41.60
2017-08-03T03:04:51.684Z,41.90
2017-08-03T03:07:19.174Z,41.50
2017-08-03T03:09:47.418Z,42.20
2017-08-03T03:12:14.915Z,42.10
2017-08-03T03:14:43.167Z,41.40
2017-08-03T03:17:10.662Z,41.40
2017-08-03T03:19:38.155Z,41.20
2017-08-03T03:22:05.634Z,41.30
2017-08-03T03:24:33.110Z,41.50
2017-08-03T03:27:00.597Z,41.90
2017-08-03T03:29:28.838Z,42.00
2017-08-03T03:31:56.326Z,42.00
2017-08-03T03:34:24.576Z,41.90
2017-08-03T03:36:52.058Z,41.90
2017-08-03T03:39:20.316Z,41.50
2017-08-03T03:41:47.810Z,41.40
2017-08-03T03:44:15.293Z,42.00
2017-08-03T03:46:42.772Z,41.60
2017-08-03T03:49:10.271Z,41.60
2017-08-03T03:51:38.522Z,42.10
2017-08-03T03:54:05.998Z,42.10
2017-08-03T03:56:33.485Z,41.70
2017-08-03T03:59:00.967Z,42.30
2017-08-03T04:01:28.443Z,41.10
2017-08-03T04:03:55.938Z,42.20
2017-08-03T04:06:23.454Z,42.00
2017-08-03T04:08:50.944Z,42.30
2017-08-03T04:11:18.438Z,42.20
2017-08-03T04:13:45.929Z,41.90
2017-08-03T04:16:13.411Z,41.90
2017-08-03T04:18:40.911Z,41.90
2017-08-03T04:21:08.390Z,41.80
2017-08-03T04:23:35.874Z,41.90
2017-08-03T04:26:03.377Z,41.80
2017-08-03T04:28:31.621Z,41.70
2017-08-03T04:30:59.107Z,41.60
2017-08-03T04:33:27.375Z,41.50
2017-08-03T04:35:54.849Z,41.50
2017-08-03T04:38:23.098Z,41.30
2017-08-03T04:40:50.604Z,41.30
2017-08-03T04:43:18.093Z,41.50
2017-08-03T04:45:45.579Z,41.50
2017-08-03T04:48:13.079Z,41.20
2017-08-03T04:50:40.563Z,41.20
2017-08-03T04:53:08.069Z,40.70
2017-08-03T04:55:36.334Z,41.70
2017-08-03T04:58:03.821Z,41.50
2017-08-03T05:00:31.310Z,41.80
2017-08-03T05:02:58.797Z,40.90
2017-08-03T05:05:26.274Z,41.30
2017-08-03T05:07:53.753Z,41.20
2017-08-03T05:10:22.019Z,41.10
2017-08-03T05:12:49.502Z,41.10
2017-08-03T05:15:16.994Z,41.00
2017-08-03T05:17:44.485Z,41.30
2017-08-03T05:20:11.976Z,41.50
2017-08-03T05:22:39.455Z,41.10
2017-08-03T05:25:06.945Z,41.80
2017-08-03T05:27:34.423Z,42.20
2017-08-03T05:30:01.905Z,42.40
2017-08-03T05:32:29.415Z,42.50
2017-08-03T05:34:56.903Z,42.30
2017-08-03T05:37:24.377Z,42.30
2017-08-03T05:39:52.638Z,42.90
2017-08-03T05:42:20.125Z,42.90
2017-08-03T05:44:47.613Z,42.80
2017-08-03T05:47:15.114Z,43.40
2017-08-03T05:49:42.595Z,43.60
2017-08-03T05:52:10.078Z,43.80
2017-08-03T05:54:37.578Z,43.70
2017-08-03T05:57:05.062Z,43.70
2017-08-03T05:59:33.302Z,43.50
2017-08-03T06:02:00.786Z,43.50
2017-08-03T06:04:28.257Z,43.80
2017-08-03T06:06:56.535Z,44.30
2017-08-03T06:09:24.803Z,44.60
2017-08-03T06:11:53.122Z,44.90
2017-08-03T06:14:20.611Z,44.90
2017-08-03T06:16:48.101Z,44.90
2017-08-03T06:19:16.348Z,45.80
2017-08-03T06:21:43.840Z,45.10
2017-08-03T06:24:12.106Z,45.10
2017-08-03T06:26:39.595Z,45.10
2017-08-03T06:29:07.078Z,45.40
2017-08-03T06:31:34.578Z,45.60
2017-08-03T06:34:02.049Z,45.50
2017-08-03T06:36:30.291Z,45.90
2017-08-03T06:38:57.791Z,45.90
2017-08-03T06:41:26.035Z,45.90
2017-08-03T06:43:53.523Z,45.80
2017-08-03T06:46:21.788Z,46.10
2017-08-03T06:48:49.267Z,46.10
2017-08-03T06:51:17.519Z,46.10
2017-08-03T06:53:45.015Z,46.10
2017-08-03T06:56:12.514Z,46.20
2017-08-03T06:58:39.997Z,46.20
2017-08-03T07:01:07.494Z,46.50
2017-08-03T07:03:34.977Z,46.90
2017-08-03T07:06:02.448Z,46.80
2017-08-03T07:08:29.942Z,46.50
2017-08-03T07:10:57.432Z,47.00
2017-08-03T07:13:24.925Z,47.10
2017-08-03T07:15:52.419Z,46.90
2017-08-03T07:18:19.907Z,46.90
2017-08-03T07:20:47.383Z,47.20
2017-08-03T07:23:14.887Z,46.80
2017-08-03T07:25:42.370Z,46.90
2017-08-03T07:28:10.628Z,46.90
2017-08-03T07:30:38.122Z,46.90
2017-08-03T07:33:05.594Z,47.00
2017-08-03T07:35:33.075Z,46.70
2017-08-03T07:38:00.557Z,46.80
2017-08-03T07:40:28.048Z,46.80
2017-08-03T07:42:55.541Z,46.70
2017-08-03T07:45:23.042Z,46.90
2017-08-03T07:47:50.513Z,46.60
2017-08-03T07:50:18.753Z,47.00
2017-08-03T07:52:46.342Z,47.00
2017-08-03T07:55:14.596Z,46.00
2017-08-03T07:57:42.072Z,45.90
2017-08-03T08:00:09.572Z,46.00
2017-08-03T08:02:37.054Z,46.00
2017-08-03T08:05:04.538Z,46.00
2017-08-03T08:07:32.031Z,44.90
2017-08-03T08:09:59.513Z,44.40
2017-08-03T08:12:26.999Z,44.30
2017-08-03T08:14:54.486Z,43.60
2017-08-03T08:17:22.086Z,43.70
2017-08-03T08:19:49.574Z,43.80
2017-08-03T08:22:17.070Z,44.60
2017-08-03T08:24:45.315Z,44.70
2017-08-03T08:27:12.804Z,44.60
2017-08-03T08:29:41.071Z,44.10
2017-08-03T08:32:08.555Z,44.10
2017-08-03T08:34:36.052Z,45.50
2017-08-03T08:37:03.558Z,46.80
2017-08-03T08:39:31.803Z,45.60
2017-08-03T08:41:59.295Z,45.60
2017-08-03T08:44:27.553Z,44.90
2017-08-03T08:46:55.071Z,44.80
2017-08-03T08:49:22.562Z,44.80
2017-08-03T08:51:50.062Z,44.90
2017-08-03T08:54:18.311Z,44.60
2017-08-03T08:56:45.803Z,44.50
2017-08-03T08:59:13.303Z,44.70
2017-08-03T09:01:40.785Z,44.70
2017-08-03T09:04:08.273Z,44.80
2017-08-03T09:06:36.535Z,45.00
2017-08-03T09:09:04.783Z,44.50
2017-08-03T09:11:32.264Z,44.90
2017-08-03T09:13:59.767Z,44.40
2017-08-03T09:16:27.261Z,44.30
2017-08-03T09:18:54.758Z,44.30
2017-08-03T09:21:23.026Z,44.20
2017-08-03T09:23:51.275Z,44.50
2017-08-03T09:26:18.757Z,44.40
2017-08-03T09:28:46.253Z,44.10
2017-08-03T09:31:13.730Z,44.10
2017-08-03T09:33:41.204Z,44.10
2017-08-03T09:36:08.697Z,43.70
2017-08-03T09:38:37.019Z,43.50
2017-08-03T09:41:04.503Z,43.50
2017-08-03T09:43:31.998Z,44.30
2017-08-03T09:46:00.248Z,42.80
2017-08-03T09:48:27.727Z,42.70
2017-08-03T09:50:55.994Z,38.50
2017-08-03T09:53:23.491Z,37.80
2017-08-03T09:55:50.974Z,37.50
2017-08-03T09:58:18.474Z,36.60
2017-08-03T10:00:45.963Z,34.90
2017-08-03T10:03:13.442Z,34.90
2017-08-03T10:05:40.946Z,34.20
2017-08-03T10:08:08.436Z,34.50
2017-08-03T10:10:35.920Z,34.40
2017-08-03T10:13:03.419Z,33.90
2017-08-03T10:15:30.939Z,33.80
2017-08-03T10:17:58.422Z,34.90
2017-08-03T10:20:25.922Z,36.70
2017-08-03T10:22:54.174Z,39.40
2017-08-03T10:25:21.672Z,39.30
2017-08-03T10:27:49.169Z,40.20
2017-08-03T10:30:16.666Z,38.70
2017-08-03T10:32:44.918Z,37.30
2017-08-03T10:35:12.406Z,37.10
2017-08-03T10:37:40.663Z,37.90
2017-08-03T10:40:08.163Z,37.70
2017-08-03T10:42:35.666Z,37.20
2017-08-03T10:45:03.146Z,37.00
2017-08-03T10:47:30.660Z,37.70
2017-08-03T10:49:58.170Z,37.90
2017-08-03T10:52:25.649Z,37.90
2017-08-03T10:54:53.895Z,38.90
2017-08-03T10:57:21.390Z,38.80
2017-08-03T10:59:48.872Z,39.50
2017-08-03T11:02:16.359Z,39.20
2017-08-03T11:04:43.863Z,40.50
2017-08-03T11:07:12.113Z,39.50
2017-08-03T11:09:39.598Z,39.50
2017-08-03T11:12:07.861Z,39.10
2017-08-03T11:14:36.106Z,38.90
2017-08-03T11:17:03.611Z,38.80
2017-08-03T11:19:31.861Z,40.80
2017-08-03T11:21:59.346Z,40.80
2017-08-03T11:24:26.832Z,41.30
2017-08-03T11:26:54.338Z,41.20
2017-08-03T11:29:21.853Z,41.90
2017-08-03T11:31:49.354Z,42.30
2017-08-03T11:34:16.850Z,42.00
2017-08-03T11:36:44.346Z,42.70
2017-08-03T11:39:11.822Z,42.20
2017-08-03T11:41:39.332Z,42.10
2017-08-03T11:44:06.834Z,42.70
2017-08-03T11:46:34.323Z,43.10
2017-08-03T11:49:02.594Z,44.10
2017-08-03T11:51:30.083Z,43.70
2017-08-03T11:53:57.563Z,44.30
2017-08-03T11:56:25.058Z,44.00
2017-08-03T11:58:52.532Z,43.70
2017-08-03T12:01:20.782Z,44.00
2017-08-03T12:03:48.315Z,43.90
2017-08-03T12:06:15.797Z,43.90
2017-08-03T12:08:43.286Z,44.20
2017-08-03T12:11:10.786Z,43.50
2017-08-03T12:13:38.262Z,42.80
2017-08-03T12:16:05.744Z,42.80
2017-08-03T12:18:35.041Z,42.50
2017-08-03T12:21:02.510Z,42.20
2017-08-03T12:23:29.990Z,42.10
2017-08-03T12:25:58.254Z,43.30
2017-08-03T12:28:25.734Z,43.20
2017-08-03T12:30:53.979Z,43.00
2017-08-03T12:33:21.472Z,43.00
2017-08-03T12:35:49.060Z,43.40
2017-08-03T12:38:16.555Z,43.40
2017-08-03T12:40:44.054Z,43.40
2017-08-03T12:43:11.542Z,43.30
2017-08-03T12:45:39.022Z,43.20
2017-08-03T12:48:06.513Z,43.40
2017-08-03T12:50:34.769Z,42.60
2017-08-03T12:53:02.249Z,42.60
2017-08-03T12:55:30.500Z,42.10
2017-08-03T12:57:57.983Z,42.10
2017-08-03T13:00:26.231Z,42.50
2017-08-03T13:02:53.720Z,42.50
2017-08-03T13:05:21.976Z,40.90
2017-08-03T13:07:49.454Z,40.10
2017-08-03T13:10:17.714Z,40.50
2017-08-03T13:12:45.199Z,40.50
2017-08-03T13:15:12.698Z,40.60
2017-08-03T13:17:40.190Z,40.80
2017-08-03T13:20:07.679Z,40.00
2017-08-03T13:22:35.938Z,38.80
2017-08-03T13:25:03.434Z,38.80
2017-08-03T13:27:30.913Z,38.30
2017-08-03T13:29:58.413Z,38.90
2017-08-03T13:32:25.901Z,39.10
2017-08-03T13:34:53.380Z,38.90
2017-08-03T13:37:20.867Z,38.30
2017-08-03T13:39:48.363Z,38.50
2017-08-03T13:42:16.602Z,37.70
2017-08-03T13:44:44.090Z,37.70
2017-08-03T13:47:12.355Z,38.40
2017-08-03T13:49:39.837Z,38.30
2017-08-03T13:52:08.086Z,37.80
2017-08-03T13:54:35.587Z,37.80
2017-08-03T13:57:03.082Z,37.80
2017-08-03T13:59:30.566Z,37.30
2017-08-03T14:01:58.062Z,37.20
2017-08-03T14:04:25.559Z,37.60
2017-08-03T14:06:53.859Z,37.00
2017-08-03T14:09:21.358Z,36.90
2017-08-03T14:11:48.837Z,36.40
2017-08-03T14:14:16.328Z,37.00
2017-08-03T14:16:43.826Z,36.50
2017-08-03T14:19:12.070Z,36.70
2017-08-03T14:21:39.549Z,36.60
2017-08-03T14:24:07.822Z,37.00
2017-08-03T14:26:36.066Z,36.90
2017-08-03T14:29:03.550Z,37.00
2017-08-03T14:31:31.041Z,36.20
2017-08-03T14:33:58.623Z,35.80
2017-08-03T14:36:26.116Z,37.10
2017-08-03T14:38:53.631Z,36.20
2017-08-03T14:41:21.114Z,36.20
2017-08-03T14:43:48.599Z,35.60
2017-08-03T14:46:16.098Z,37.20
2017-08-03T14:48:43.577Z,37.20
2017-08-03T14:51:11.058Z,37.10
2017-08-03T14:53:38.541Z,36.30
2017-08-03T14:56:06.010Z,36.90
2017-08-03T14:58:34.252Z,35.80
2017-08-03T15:01:01.737Z,35.90
2017-08-03T15:03:29.213Z,36.00
2017-08-03T15:05:57.473Z,36.10
2017-08-03T15:08:24.969Z,36.10
2017-08-03T15:10:52.442Z,35.80
2017-08-03T15:13:19.925Z,36.30
2017-08-03T15:15:47.422Z,35.70
2017-08-03T15:18:15.675Z,36.70
2017-08-03T15:20:43.159Z,36.70
2017-08-03T15:23:11.430Z,37.00
2017-08-03T15:25:39.687Z,36.70
2017-08-03T15:28:07.945Z,37.90
2017-08-03T15:30:35.447Z,37.20
2017-08-03T15:33:03.694Z,37.40
2017-08-03T15:35:31.181Z,37.40
2017-08-03T15:37:59.450Z,36.40
2017-08-03T15:40:27.710Z,36.70
2017-08-03T15:42:55.186Z,36.00
2017-08-03T15:45:22.693Z,36.20
2017-08-03T15:47:50.169Z,35.70
2017-08-03T15:50:17.645Z,35.50
2017-08-03T15:52:45.133Z,35.80
2017-08-03T15:55:13.389Z,36.00
2017-08-03T15:57:40.878Z,35.90
2017-08-03T16:00:09.135Z,35.40
2017-08-03T16:02:36.626Z,35.40
2017-08-03T16:05:04.114Z,36.50
2017-08-03T16:07:31.665Z,36.40
2017-08-03T16:09:59.159Z,36.10
2017-08-03T16:12:26.642Z,36.00
2017-08-03T16:14:54.917Z,36.50
2017-08-03T16:17:23.176Z,38.20
2017-08-03T16:19:50.663Z,38.20
2017-08-03T16:22:18.922Z,38.00
2017-08-03T16:24:46.426Z,38.00
2017-08-03T16:27:13.901Z,38.10
2017-08-03T16:29:41.406Z,38.10
2017-08-03T16:32:09.663Z,37.90
2017-08-03T16:34:37.147Z,37.90
2017-08-03T16:37:05.401Z,38.20
2017-08-03T16:39:32.933Z,38.20
2017-08-03T16:42:00.421Z,38.00
2017-08-03T16:44:27.919Z,38.10
2017-08-03T16:46:55.460Z,37.90
2017-08-03T16:49:23.717Z,38.80
2017-08-03T16:51:51.240Z,38.80
2017-08-03T16:54:18.768Z,39.50
2017-08-03T16:56:46.272Z,39.20
2017-08-03T16:59:13.783Z,39.40
2017-08-03T17:01:41.295Z,39.40
2017-08-03T17:04:08.810Z,40.10
2017-08-03T17:06:36.338Z,39.60
2017-08-03T17:09:03.830Z,40.00
2017-08-03T17:11:31.318Z,40.20
2017-08-03T17:13:58.859Z,40.20
2017-08-03T17:16:26.687Z,40.60
2017-08-03T17:18:54.999Z,41.10
2017-08-03T17:21:22.545Z,41.10
2017-08-03T17:23:50.044Z,41.00
2017-08-03T17:26:17.573Z,41.50
2017-08-03T17:28:45.116Z,41.10
2017-08-03T17:31:13.376Z,40.90
2017-08-03T17:33:41.665Z,40.80
2017-08-03T17:36:10.059Z,41.00
2017-08-03T17:38:37.561Z,41.00
2017-08-03T17:41:05.050Z,41.10
2017-08-03T17:43:32.559Z,41.20
2017-08-03T17:46:00.065Z,41.10
2017-08-03T17:48:27.558Z,41.30
2017-08-03T17:50:55.054Z,41.40
2017-08-03T17:53:22.534Z,41.90
2017-08-03T17:55:50.023Z,42.00
2017-08-03T17:58:18.294Z,42.30
2017-08-03T18:00:46.610Z,42.20
2017-08-03T18:03:14.096Z,42.10
2017-08-03T18:05:41.605Z,42.40
2017-08-03T18:08:09.104Z,42.60
2017-08-03T18:10:36.594Z,42.50
2017-08-03T18:13:04.095Z,43.70
2017-08-03T18:15:31.587Z,44.00
2017-08-03T18:17:59.072Z,44.10
2017-08-03T18:20:26.576Z,44.30
2017-08-03T18:22:54.057Z,43.90
2017-08-03T18:25:21.559Z,44.50
2017-08-03T18:27:49.839Z,44.60
2017-08-03T18:30:18.111Z,44.70
2017-08-03T18:32:46.388Z,45.00
2017-08-03T18:35:14.653Z,45.00
2017-08-03T18:37:42.161Z,45.20
2017-08-03T18:40:09.652Z,45.00
2017-08-03T18:42:37.176Z,44.60
2017-08-03T18:45:04.677Z,45.10
2017-08-03T18:47:32.187Z,45.70
2017-08-03T18:49:59.706Z,45.50
2017-08-03T18:52:27.230Z,46.10
2017-08-03T18:54:54.732Z,44.20
2017-08-03T18:57:22.245Z,44.20
2017-08-03T18:59:49.725Z,44.50
2017-08-03T19:02:17.210Z,44.60
2017-08-03T19:04:44.720Z,44.30
2017-08-03T19:07:12.214Z,44.40
2017-08-03T19:09:39.694Z,43.70
2017-08-03T19:12:07.962Z,44.00
2017-08-03T19:14:35.451Z,43.80
2017-08-03T19:17:02.943Z,43.40
2017-08-03T19:19:30.452Z,43.40
2017-08-03T19:21:58.721Z,44.60
2017-08-03T19:24:26.213Z,44.60
2017-08-03T19:26:53.705Z,44.60
2017-08-03T19:29:21.201Z,44.50
2017-08-03T19:31:49.483Z,44.90
2017-08-03T19:34:17.757Z,45.80
2017-08-03T19:36:45.249Z,45.20
2017-08-03T19:39:12.733Z,45.40
2017-08-03T19:41:40.221Z,46.00
2017-08-03T19:44:07.697Z,45.80
2017-08-03T19:46:35.954Z,46.30
2017-08-03T19:49:03.440Z,46.20
2017-08-03T19:51:31.695Z,46.70
2017-08-03T19:53:59.207Z,46.60
2017-08-03T19:56:26.699Z,46.60
2017-08-03T19:58:54.191Z,46.70
2017-08-03T20:01:22.433Z,46.70
2017-08-03T20:03:49.933Z,46.60
2017-08-03T20:06:30.037Z,46.90
2017-08-03T20:09:18.115Z,47.50
2017-08-03T20:11:46.374Z,46.80
2017-08-03T20:14:14.647Z,47.40
2017-08-03T20:16:42.149Z,46.60
2017-08-03T20:19:10.410Z,46.70
2017-08-03T20:21:38.657Z,45.90
2017-08-03T20:24:06.146Z,45.80
2017-08-03T20:26:34.384Z,44.90
2017-08-03T20:29:01.868Z,44.90
2017-08-03T20:31:29.375Z,45.20
2017-08-03T20:33:56.876Z,45.10
2017-08-03T20:36:24.362Z,45.60
2017-08-03T20:38:52.634Z,45.50
2017-08-03T20:41:20.888Z,45.50
2017-08-03T20:43:48.397Z,45.40
2017-08-03T20:46:15.913Z,45.50
2017-08-03T20:48:43.398Z,44.10
2017-08-03T20:51:11.647Z,44.50
2017-08-03T20:53:39.165Z,44.50
2017-08-03T20:56:06.668Z,44.60
2017-08-03T20:58:34.154Z,43.50
2017-08-03T21:01:02.440Z,42.50
2017-08-03T21:03:29.926Z,42.40
2017-08-03T21:05:57.416Z,42.70
2017-08-03T21:08:24.912Z,42.20
2017-08-03T21:10:53.183Z,38.20
2017-08-03T21:13:21.451Z,37.40
2017-08-03T21:15:49.731Z,36.00
2017-08-03T21:18:18.039Z,36.10
2017-08-03T21:20:45.525Z,36.20
2017-08-03T21:23:13.034Z,39.10
2017-08-03T21:25:41.282Z,37.50
2017-08-03T21:28:08.766Z,37.00
2017-08-03T21:30:37.047Z,31.90
2017-08-03T21:33:05.293Z,31.70
2017-08-03T21:35:32.778Z,31.60
2017-08-03T21:38:01.056Z,31.90
2017-08-03T21:40:29.430Z,32.00
2017-08-03T21:42:56.919Z,32.00
2017-08-03T21:45:24.426Z,31.40
2017-08-03T21:47:51.910Z,31.50
2017-08-03T21:50:20.295Z,30.60
2017-08-03T21:52:48.560Z,30.70
2017-08-03T21:55:16.045Z,30.70
2017-08-03T21:57:43.523Z,31.10
2017-08-03T22:00:11.012Z,31.00
2017-08-03T22:02:38.507Z,32.10
2017-08-03T22:05:06.758Z,31.20
2017-08-03T22:07:34.245Z,31.20
2017-08-03T22:10:02.496Z,30.00
2017-08-03T22:12:29.987Z,30.00
2017-08-03T22:14:57.502Z,30.80
2017-08-03T22:17:25.017Z,30.70
2017-08-03T22:19:52.495Z,31.50
2017-08-03T22:22:19.989Z,32.10
2017-08-03T22:24:47.475Z,30.40
2017-08-03T22:27:15.723Z,30.40
2017-08-03T22:29:43.222Z,30.40
2017-08-03T22:32:10.770Z,30.50
2017-08-03T22:34:39.022Z,31.30
2017-08-03T22:37:06.518Z,31.20
2017-08-03T22:39:34.005Z,30.70
2017-08-03T22:42:01.501Z,30.80
2017-08-03T22:44:29.017Z,30.50
2017-08-03T22:46:56.518Z,31.70
2017-08-03T22:49:24.001Z,31.90
2017-08-03T22:51:52.279Z,30.20
2017-08-03T22:54:20.696Z,34.90
2017-08-03T22:56:48.499Z,34.90
2017-08-03T22:59:15.993Z,30.20
2017-08-03T23:01:43.510Z,30.80
2017-08-03T23:04:10.983Z,31.70
2017-08-03T23:06:38.482Z,29.40
2017-08-03T23:09:05.975Z,33.60
2017-08-03T23:11:33.494Z,32.80
2017-08-03T23:14:01.001Z,29.30
2017-08-03T23:16:28.479Z,32.70
2017-08-03T23:18:55.952Z,31.80
2017-08-03T23:21:24.220Z,31.70
2017-08-03T23:23:51.707Z,31.20
2017-08-03T23:26:19.179Z,29.80
2017-08-03T23:28:46.680Z,29.00
2017-08-03T23:31:14.171Z,30.00
2017-08-03T23:33:42.426Z,29.60
2017-08-03T23:36:09.922Z,29.60
2017-08-03T23:38:37.423Z,29.10
2017-08-03T23:41:04.919Z,29.20
2017-08-03T23:43:33.186Z,29.80
2017-08-03T23:46:00.671Z,29.80
2017-08-03T23:48:28.162Z,31.30
2017-08-03T23:50:55.657Z,29.10
2017-08-03T23:53:23.151Z,29.70
2017-08-03T23:55:50.658Z,28.80
2017-08-03T23:58:18.202Z,31.10
